Orrin, North Dakota
Current Conditions -  °F | °C
As of 8:55 AM on Tuesday 21 Oct 2014 (Local Time) from KRUG Reporting Station
Clear Clear  
Wind Chill: 42°   Ceiling: Unl
Heat Index: 48°   Visibility: 10mi
Dew Point: 39°   Wind: 18mph
Humidity: 71%   Direction: 150°SSE
Pressure: 29.86"   Gusts: 22mph
Location:  48.09°N, 100.16°W
Report Text: KRUG 211355Z AUTO 15016G19KT 10SM CLR 09/04 A2986 RMK AO2
Loading
Personal Weather Stations






























Interactive Weather Map
Tropical Storm Tracking
New forecast layout! Learn more

10-Day Weather Forecast

Advertisements
Track Severe Weather on mobile